Time;durP1;ratioP1;P1;durP2;ratioP2;P2;SDS_P1;SDS_P2;PMS_P1;PMS_P2;Temp;Humidity;BMP_temperature;BMP_pressure;BME280_temperature;BME280_humidity;BME280_pressure;Samples;Min_cycle;Max_cycle;Signal;HPM_P1;HPM_P2
2022/10/05 00:00:59;;;;;;;;;;;13.10;79.60;;;-151.14;100.00;62537.16;4220226;34;19903;-86
2022/10/05 00:03:32;;;;;;;;;;;13.10;79.50;;;-151.14;100.00;62537.16;4220096;34;19903;-86
2022/10/05 00:06:00;;;;;;;;;;;13.10;79.60;;;-151.14;100.00;62537.16;4197311;34;20225;-86
2022/10/05 00:08:30;;;;;;;;;;;13.10;79.60;;;;;;4219618;34;19903;-86
2022/10/05 00:10:59;;;;;;;;;;;13.10;79.60;;;-151.14;100.00;62537.16;4243630;33;19910;-85
2022/10/05 00:13:29;;;;;;;;;;;13.10;79.60;;;-151.14;100.00;62537.16;4219620;34;19903;-86
2022/10/05 00:16:05;;;;;;;;;;;13.10;79.70;;;-151.14;100.00;62537.16;4197194;34;19903;-86
2022/10/05 00:18:34;;;;;;;;;;;13.10;79.70;;;-151.14;100.00;62537.16;4196360;34;20114;-86
2022/10/05 00:21:02;;;;;;;;;;;13.10;79.50;;;-151.14;100.00;62537.16;4220144;34;20114;-85
2022/10/05 00:23:32;;;;;;;;;;;13.10;79.60;;;-151.14;100.00;62537.16;4196861;34;19903;-86
2022/10/05 00:26:02;;;;;;;;;;;13.10;79.60;;;-151.14;100.00;62537.16;4220149;34;19903;-86
2022/10/05 00:28:31;;;;;;;;;;;13.10;79.70;;;-151.14;100.00;62537.16;4219427;34;19904;-86
2022/10/05 00:31:01;;;;;;;;;;;13.10;79.70;;;-151.14;100.00;62537.16;4219853;34;19907;-86
2022/10/05 00:33:29;;;;;;;;;;;13.10;79.60;;;18.08;100.00;62537.16;4219545;34;20619;-86
2022/10/05 00:35:58;;;;;;;;;;;13.10;79.60;;;-151.14;100.00;62537.16;4196914;34;19904;-86
2022/10/05 00:38:28;;;;;;;;;;;13.10;79.60;;;-151.14;100.00;62537.16;4219266;34;19903;-86
2022/10/05 00:41:02;;;;;;;;;;;13.10;79.60;;;-151.14;100.00;62537.16;4196842;34;19910;-86
2022/10/05 00:43:57;;;;;;;;;;;13.10;79.60;;;-151.14;100.00;62537.16;4196557;34;19910;-86
2022/10/05 00:46:32;;;;;;;;;;;13.10;79.60;;;-151.14;100.00;62537.16;4196778;34;20129;-86
2022/10/05 00:49:05;;;;;;;;;;;13.10;79.60;;;12.12;100.00;62537.16;4219353;34;19903;-86
2022/10/05 00:51:35;;;;;;;;;;;13.10;79.60;;;12.12;100.00;62537.16;4196786;34;19903;-87
2022/10/05 00:54:21;;;;;;;;;;;13.10;79.60;;;12.12;100.00;62537.16;4219484;34;19903;-86
2022/10/05 00:57:13;;;;;;;;;;;13.10;79.70;;;12.12;100.00;62537.16;4220764;34;19910;-86
2022/10/05 00:59:51;;;;;;;;;;;13.10;79.60;;;12.12;100.00;82787.34;4219202;34;19903;-86
2022/10/05 01:02:25;;;;;;;;;;;13.10;79.50;;;-151.14;100.00;62537.16;4196544;34;19926;-86
2022/10/05 01:04:58;;;;;;;;;;;13.10;79.60;;;-151.14;100.00;62537.16;4196534;34;19903;-86
2022/10/05 01:07:33;;;;;;;;;;;13.10;79.50;;;-151.14;100.00;62537.16;4196269;34;20195;-86
2022/10/05 01:10:07;;;;;;;;;;;13.10;79.40;;;12.10;100.00;62537.16;4220395;34;19911;-86
2022/10/05 01:12:40;;;;;;;;;;;13.10;79.50;;;12.10;100.00;62537.16;4196408;34;19910;-85
2022/10/05 01:15:11;;;;;;;;;;;13.10;79.60;;;-151.14;100.00;62537.16;4196394;34;19910;-86
2022/10/05 01:17:44;;;;;;;;;;;13.00;79.50;;;-151.14;100.00;62537.16;4218771;34;20087;-86
2022/10/05 01:20:38;;;;;;;;;;;13.00;79.50;;;-151.14;100.00;62537.16;4196299;34;19903;-86
2022/10/05 01:23:54;;;;;;;;;;;13.00;79.60;;;-151.14;100.00;62537.16;4168910;34;20119;-86
2022/10/05 01:26:44;;;;;;;;;;;13.00;79.50;;;-151.14;100.00;62537.16;4156612;34;20307;-86
2022/10/05 01:29:16;;;;;;;;;;;13.00;79.50;;;-151.14;100.00;62537.16;4168259;34;19903;-86
2022/10/05 01:31:48;;;;;;;;;;;13.00;79.50;;;-151.14;100.00;62537.16;4199404;34;19904;-86
2022/10/05 01:34:22;;;;;;;;;;;13.00;79.60;;;-151.14;100.00;62537.16;4214547;34;20119;-86
2022/10/05 01:36:54;;;;;;;;;;;13.00;79.50;;;-151.14;100.00;62537.16;4191482;34;20115;-86
2022/10/05 01:39:26;;;;;;;;;;;13.00;79.60;;;-151.14;100.00;62537.16;4168104;34;20107;-85
2022/10/05 01:42:01;;;;;;;;;;;13.00;79.50;;;-151.14;100.00;62537.16;4191425;34;19903;-86
2022/10/05 01:44:33;;;;;;;;;;;13.00;79.50;;;-151.14;100.00;62537.16;4168831;34;20122;-87
2022/10/05 01:47:07;;;;;;;;;;;13.00;79.50;;;-151.14;100.00;62537.16;4168741;34;19903;-86
2022/10/05 01:49:39;;;;;;;;;;;13.00;79.60;;;-151.14;100.00;62537.16;4190129;34;20282;-86
2022/10/05 01:52:22;;;;;;;;;;;13.00;79.60;;;-151.14;100.00;62537.16;4191491;34;19904;-86
2022/10/05 01:55:01;;;;;;;;;;;13.00;79.60;;;-151.14;100.00;62537.16;4191182;34;19903;-86
2022/10/05 01:57:36;;;;;;;;;;;13.00;79.60;;;-151.14;100.00;62537.16;4191023;34;19903;-86
2022/10/05 02:00:08;;;;;;;;;;;13.00;79.60;;;-151.14;100.00;62537.16;4191242;34;19912;-86
2022/10/05 02:02:46;;;;;;;;;;;13.00;79.50;;;-151.14;100.00;62537.16;4191176;34;19910;-86
2022/10/05 02:05:19;;;;;;;;;;;13.00;79.60;;;-151.14;100.00;62537.16;4191287;34;19904;-86
2022/10/05 02:07:51;;;;;;;;;;;13.00;79.70;;;-151.14;100.00;62537.16;4168163;34;19904;-86
2022/10/05 02:10:24;;;;;;;;;;;13.00;79.60;;;-151.14;100.00;62537.16;4190966;34;19904;-86
2022/10/05 02:12:57;;;;;;;;;;;13.00;79.60;;;-151.14;100.00;62537.16;4214142;34;19910;-86
2022/10/05 02:15:29;;;;;;;;;;;13.00;79.70;;;-151.14;100.00;62537.16;4191330;34;20203;-86
2022/10/05 02:18:03;;;;;;;;;;;12.90;79.60;;;-151.14;100.00;62537.16;4167988;34;20218;-86
2022/10/05 02:20:33;;;;;;;;;;;12.90;79.60;;;-151.14;100.00;62537.16;4214181;34;20128;-86
2022/10/05 02:23:04;;;;;;;;;;;13.00;79.60;;;-151.14;100.00;62537.16;4168439;34;19910;-86
2022/10/05 02:25:35;;;;;;;;;;;12.90;79.70;;;-151.14;100.00;62537.16;4168475;34;19943;-86
2022/10/05 02:28:08;;;;;;;;;;;12.90;79.60;;;-151.14;100.00;62537.16;4190559;34;19904;-85
2022/10/05 02:30:42;;;;;;;;;;;13.00;79.60;;;-151.14;100.00;62537.16;4191070;34;19904;-85
2022/10/05 02:33:16;;;;;;;;;;;12.90;79.70;;;-151.14;100.00;62537.16;4168270;34;19903;-87
2022/10/05 02:35:44;;;;;;;;;;;12.90;79.70;;;-151.14;100.00;62537.16;4169461;34;20200;-86
2022/10/05 02:38:19;;;;;;;;;;;12.90;79.60;;;-151.14;100.00;62537.16;4192880;34;19904;-86
2022/10/05 02:40:56;;;;;;;;;;;12.90;79.60;;;-151.14;100.00;62537.16;4170664;34;19904;-86
2022/10/05 02:43:33;;;;;;;;;;;12.90;79.60;;;-151.14;100.00;62537.16;4198212;34;19903;-85
2022/10/05 02:46:12;;;;;;;;;;;12.90;79.70;;;-151.14;100.00;62537.16;4197847;34;19933;-85
2022/10/05 02:48:44;;;;;;;;;;;12.90;79.60;;;-151.14;100.00;62537.16;4220577;34;19903;-85
2022/10/05 02:51:19;;;;;;;;;;;12.90;79.70;;;-151.14;100.00;62537.16;4221059;34;19903;-85
2022/10/05 02:53:59;;;;;;;;;;;12.90;79.70;;;-151.14;100.00;62537.16;4198044;34;20227;-85
2022/10/05 02:56:31;;;;;;;;;;;12.90;79.80;;;-151.14;100.00;62537.16;4220786;34;19903;-85
2022/10/05 02:59:04;;;;;;;;;;;12.90;79.80;;;-151.14;100.00;62537.16;4196633;34;19903;-85
2022/10/05 03:01:37;;;;;;;;;;;12.90;80.00;;;-151.14;100.00;62537.16;4220355;34;19911;-84
2022/10/05 03:04:14;;;;;;;;;;;12.90;79.70;;;-151.14;100.00;62537.16;4220767;34;19903;-85
2022/10/05 03:06:50;;;;;;;;;;;12.90;79.80;;;-151.14;100.00;62537.16;4197784;34;19926;-85
2022/10/05 03:09:18;;;;;;;;;;;12.90;79.80;;;-151.14;100.00;62537.16;4220473;34;19903;-85
2022/10/05 03:11:51;;;;;;;;;;;12.90;79.90;;;-151.14;100.00;62537.16;4197764;34;19903;-85
2022/10/05 03:14:24;;;;;;;;;;;12.90;79.70;;;-151.14;100.00;62537.16;4197588;34;19918;-85
2022/10/05 03:17:05;;;;;;;;;;;12.90;79.80;;;-151.14;100.00;62537.16;4197762;34;19910;-85
2022/10/05 03:20:02;;;;;;;;;;;12.90;79.70;;;-151.14;100.00;62537.16;4197202;34;20203;-85
2022/10/05 03:22:47;;;;;;;;;;;12.90;79.80;;;-151.14;100.00;62537.16;4197534;34;19903;-85
2022/10/05 03:25:40;;;;;;;;;;;12.90;79.80;;;-151.14;100.00;62537.16;4220586;34;19903;-85
2022/10/05 03:28:13;;;;;;;;;;;12.90;79.80;;;-151.14;100.00;62537.16;4220141;34;19910;-85
2022/10/05 03:30:46;;;;;;;;;;;12.90;79.60;;;-151.14;100.00;62537.16;4197471;34;19983;-85
2022/10/05 03:33:22;;;;;;;;;;;12.90;79.80;;;-151.14;100.00;62537.16;4197322;34;19903;-85
2022/10/05 03:35:58;;;;;;;;;;;12.90;79.90;;;-151.14;100.00;62537.16;4197581;34;19903;-85
2022/10/05 03:38:32;;;;;;;;;;;12.90;79.80;;;-151.14;100.00;62537.16;4220157;34;19903;-85
2022/10/05 03:41:07;;;;;;;;;;;12.90;79.80;;;-151.14;100.00;62537.16;4197350;34;19903;-85
2022/10/05 03:44:24;;;;;;;;;;;12.90;79.80;;;-151.14;100.00;62537.16;4197255;34;19903;-86
2022/10/05 03:47:03;;;;;;;;;;;12.90;79.80;;;-151.14;100.00;62537.16;4165782;34;20110;-85
2022/10/05 03:49:45;;;;;;;;;;;12.90;80.00;;;-151.14;100.00;62537.16;4220130;34;19903;-85
2022/10/05 03:52:16;;;;;;;;;;;12.90;79.90;;;-151.14;100.00;62537.16;4220171;34;19914;-85
2022/10/05 03:54:48;;;;;;;;;;;12.90;80.70;;;-151.14;100.00;62537.16;4220489;34;19903;-86
2022/10/05 03:57:19;;;;;;;;;;;12.90;79.80;;;-151.14;100.00;62537.16;4220262;34;19910;-85
2022/10/05 03:59:56;;;;;;;;;;;12.90;79.90;;;-151.14;100.00;62537.16;4219786;34;19903;-85
2022/10/05 04:02:27;;;;;;;;;;;12.90;79.90;;;-151.14;100.00;62537.16;4220286;34;19903;-85
2022/10/05 04:05:02;;;;;;;;;;;12.80;79.80;;;-151.14;100.00;62537.16;4243577;33;19903;-85
2022/10/05 04:07:41;;;;;;;;;;;12.80;79.70;;;-151.14;100.00;62537.16;4196745;34;19910;-85
2022/10/05 04:10:17;;;;;;;;;;;12.80;79.80;;;-151.14;100.00;62537.16;4220163;34;19910;-85
2022/10/05 04:12:50;;;;;;;;;;;12.80;79.80;;;-151.14;100.00;62537.16;4219856;34;19903;-85
2022/10/05 04:15:29;;;;;;;;;;;12.80;79.70;;;-151.14;100.00;62537.16;4197232;34;19911;-85
2022/10/05 04:18:01;;;;;;;;;;;12.80;79.80;;;-151.14;100.00;62537.16;4196478;34;19903;-85
2022/10/05 04:20:36;;;;;;;;;;;12.80;79.60;;;-151.14;100.00;62537.16;4219896;34;19903;-85
2022/10/05 04:23:13;;;;;;;;;;;12.80;79.80;;;-151.14;100.00;62537.16;4197134;34;20202;-85
2022/10/05 04:25:44;;;;;;;;;;;12.80;79.80;;;-151.14;100.00;62537.16;4220030;33;20142;-86
2022/10/05 04:28:16;;;;;;;;;;;12.80;79.80;;;-151.14;100.00;62537.16;4242755;33;19903;-85
2022/10/05 04:30:47;;;;;;;;;;;12.80;79.70;;;-151.14;100.00;62537.16;4243342;33;19904;-85
2022/10/05 04:33:16;;;;;;;;;;;12.80;79.70;;;-151.14;100.00;62537.16;4196652;34;20117;-85
2022/10/05 04:36:11;;;;;;;;;;;12.80;79.70;;;11.85;100.00;62537.16;4196887;34;19910;-85
2022/10/05 04:38:55;;;;;;;;;;;12.80;79.80;;;11.85;100.00;62537.16;4219326;34;19910;-85
2022/10/05 04:41:44;;;;;;;;;;;12.80;79.70;;;11.85;100.00;83605.56;4196666;34;20225;-85
2022/10/05 04:44:29;;;;;;;;;;;12.80;79.60;;;-151.14;100.00;62537.16;4219690;34;19910;-85
2022/10/05 04:47:14;;;;;;;;;;;12.80;79.50;;;11.86;100.00;62537.16;4196672;34;19903;-85
2022/10/05 04:50:01;;;;;;;;;;;12.80;79.60;;;11.86;100.00;62537.16;4196285;34;19936;-85
2022/10/05 04:52:38;;;;;;;;;;;12.80;79.60;;;11.86;100.00;62537.16;4196447;34;20118;-85
2022/10/05 04:55:21;;;;;;;;;;;12.80;79.60;;;11.86;100.00;62537.16;4243110;33;19903;-85
2022/10/05 04:57:52;;;;;;;;;;;12.80;79.60;;;11.86;100.00;62537.16;4218925;34;19929;-84
2022/10/05 05:00:25;;;;;;;;;;;12.80;79.60;;;11.86;100.00;82753.69;4242239;33;19903;-85
2022/10/05 05:03:19;;;;;;;;;;;12.80;79.60;;;11.90;100.00;62537.16;4196466;34;19904;-85
2022/10/05 05:05:53;;;;;;;;;;;12.80;79.50;;;11.90;100.00;62537.16;4219638;34;19903;-85
2022/10/05 05:08:38;;;;;;;;;;;12.80;79.40;;;11.90;100.00;82757.59;4218907;34;19926;-85
2022/10/05 05:11:23;;;;;;;;;;;12.80;79.40;;;11.89;100.00;62537.16;4196286;34;19911;-85
2022/10/05 05:14:27;;;;;;;;;;;12.80;79.50;;;11.89;100.00;62537.16;4242826;33;19903;-85
2022/10/05 05:17:05;;;;;;;;;;;12.80;79.50;;;11.89;100.00;62537.16;4127569;34;19903;-85
2022/10/05 05:19:41;;;;;;;;;;;12.80;79.40;;;11.89;100.00;62537.16;4196059;34;20115;-85
2022/10/05 05:22:16;;;;;;;;;;;12.80;79.40;;;11.89;100.00;62537.16;4219152;34;19903;-85
2022/10/05 05:25:01;;;;;;;;;;;12.80;79.50;;;11.89;100.00;62537.16;4196417;34;19903;-85
2022/10/05 05:27:39;;;;;;;;;;;12.80;79.30;;;11.89;100.00;82756.19;4218828;34;19903;-85
2022/10/05 05:30:16;;;;;;;;;;;12.80;79.50;;;11.93;100.00;62537.16;4242652;33;19903;-85
2022/10/05 05:32:54;;;;;;;;;;;12.90;79.60;;;12.78;100.00;62537.16;4219053;34;20114;-85
2022/10/05 05:35:48;;;;;;;;;;;12.90;79.50;;;11.93;100.00;82761.84;4219320;34;19910;-85
2022/10/05 05:38:26;;;;;;;;;;;12.90;79.40;;;11.92;100.00;82760.44;4218615;34;19903;-85
2022/10/05 05:41:07;;;;;;;;;;;12.90;79.30;;;11.93;100.00;82761.84;4219012;34;19910;-85
2022/10/05 05:43:53;;;;;;;;;;;12.90;80.00;;;-151.14;100.00;62537.16;4219071;34;19925;-85
2022/10/05 05:46:25;;;;;;;;;;;12.90;79.20;;;-151.14;100.00;62537.16;4242541;33;20206;-85
2022/10/05 05:48:54;;;;;;;;;;;12.90;78.90;;;-151.14;100.00;62537.16;4195721;34;19903;-85
2022/10/05 05:51:27;;;;;;;;;;;13.00;78.90;;;11.99;100.00;62537.16;4195985;34;19910;-85
2022/10/05 05:54:04;;;;;;;;;;;13.00;78.80;;;11.99;100.00;82768.94;4196119;34;20118;-85
2022/10/05 05:56:37;;;;;;;;;;;13.00;78.80;;;12.02;100.00;82773.91;4196040;34;19910;-85
2022/10/05 05:59:12;;;;;;;;;;;13.00;78.80;;;12.00;100.00;88975.69;4195498;34;20003;-85
2022/10/05 06:01:45;;;;;;;;;;;13.00;78.90;;;-151.14;100.00;62537.16;4218960;34;20194;-85
2022/10/05 06:04:17;;;;;;;;;;;13.00;78.80;;;12.00;100.00;62537.16;4195998;34;19926;-85
2022/10/05 06:06:48;;;;;;;;;;;13.00;78.80;;;12.00;100.00;62537.16;4195973;34;19911;-85
2022/10/05 06:09:20;;;;;;;;;;;13.00;78.80;;;12.00;100.00;82770.38;4195226;34;19910;-85
2022/10/05 06:12:16;;;;;;;;;;;12.90;78.70;;;12.05;100.00;62537.16;4207915;34;19903;-85
2022/10/05 06:14:47;;;;;;;;;;;13.00;78.70;;;12.05;100.00;62537.16;4195788;34;19910;-85
2022/10/05 06:17:18;;;;;;;;;;;13.00;78.60;;;12.05;100.00;62537.16;4196010;34;19903;-85
2022/10/05 06:19:47;;;;;;;;;;;13.10;78.60;;;12.05;100.00;82777.47;4241798;33;19903;-85
2022/10/05 06:22:21;;;;;;;;;;;13.10;78.20;;;12.26;100.00;82807.19;4218720;34;19904;-86
2022/10/05 06:24:58;;;;;;;;;;;13.20;78.00;;;-151.14;100.00;62537.16;4218757;34;19926;-85
2022/10/05 06:27:35;;;;;;;;;;;13.30;77.90;;;12.35;100.00;62537.16;4218567;34;19903;-86
2022/10/05 06:30:07;;;;;;;;;;;13.30;77.30;;;12.35;100.00;62537.16;4195859;34;19911;-85
2022/10/05 06:32:59;;;;;;;;;;;13.30;77.10;;;-151.14;100.00;62537.16;4218553;34;19903;-85
2022/10/05 06:35:38;;;;;;;;;;;13.30;76.90;;;-151.14;100.00;62537.16;4218715;34;19903;-85
2022/10/05 06:38:19;;;;;;;;;;;13.30;77.00;;;12.34;100.00;82817.81;4195297;34;19922;-85
2022/10/05 06:40:59;;;;;;;;;;;13.30;77.00;;;12.30;100.00;62537.16;4195557;34;19903;-85
2022/10/05 06:43:47;;;;;;;;;;;13.30;77.10;;;12.27;100.00;62537.16;4168085;34;19903;-86
2022/10/05 06:47:00;;;;;;;;;;;13.30;77.20;;;12.24;100.00;62537.16;4174597;34;19904;-86
2022/10/05 06:49:58;;;;;;;;;;;13.20;77.30;;;12.21;100.00;62537.16;4167975;34;19904;-85
2022/10/05 06:53:07;;;;;;;;;;;13.20;77.30;;;-151.14;100.00;62537.16;4180076;34;19904;-85
2022/10/05 06:55:42;;;;;;;;;;;13.20;77.50;;;12.13;100.00;62537.16;4191036;34;19911;-85
2022/10/05 06:58:26;;;;;;;;;;;13.10;77.70;;;12.11;100.00;62537.16;4213393;34;19927;-85
2022/10/05 07:01:00;;;;;;;;;;;13.10;78.00;;;12.11;100.00;82785.94;4190781;34;19903;-85
2022/10/05 07:03:35;;;;;;;;;;;13.10;78.10;;;12.12;100.00;82787.34;4168070;34;20092;-85
2022/10/05 07:06:10;;;;;;;;;;;13.10;78.10;;;12.10;100.00;82784.53;4168196;34;19903;-85
2022/10/05 07:08:52;;;;;;;;;;;13.10;78.00;;;12.10;100.00;62537.16;4217715;34;19909;-85
2022/10/05 07:11:31;;;;;;;;;;;13.10;78.20;;;12.10;100.00;62537.16;4218233;34;19903;-86
2022/10/05 07:14:11;;;;;;;;;;;13.10;78.20;;;12.10;100.00;62537.16;4218242;34;19910;-85
2022/10/05 07:16:51;;;;;;;;;;;13.10;78.10;;;12.10;100.00;62537.16;4195458;34;19903;-85
2022/10/05 07:19:28;;;;;;;;;;;13.10;78.10;;;12.10;100.00;62537.16;4194757;34;19903;-85
2022/10/05 07:22:31;;;;;;;;;;;13.10;78.00;;;12.10;100.00;97521.19;4195587;34;19910;-85
2022/10/05 07:25:04;;;;;;;;;;;13.10;77.90;;;12.10;100.00;82878.38;4194066;34;19926;-85
2022/10/05 07:27:34;;;;;;;;;;;13.10;77.90;;;12.20;100.00;62537.16;4197291;34;19911;-86
2022/10/05 07:30:04;;;;;;;;;;;13.10;77.90;;;12.17;100.00;62537.16;4220550;34;19903;-86
2022/10/05 07:32:43;;;;;;;;;;;13.10;77.80;;;12.18;100.00;62537.16;4197578;34;19903;-85
2022/10/05 07:37:59;;;;;;;;;;;13.20;77.70;;;-151.14;100.00;62537.16;4219133;34;19903;-86
2022/10/05 07:40:38;;;;;;;;;;;13.20;77.80;;;12.21;100.00;62537.16;4220570;34;19903;-86
2022/10/05 07:43:17;;;;;;;;;;;13.20;77.90;;;12.24;100.00;62537.16;4220425;34;19903;-85
2022/10/05 07:45:48;;;;;;;;;;;13.20;77.90;;;12.27;100.00;82808.59;4220586;34;20050;-85
2022/10/05 07:48:20;;;;;;;;;;;13.20;77.80;;;12.27;100.00;62537.16;4219940;34;19910;-86
2022/10/05 07:50:58;;;;;;;;;;;13.30;77.70;;;12.31;100.00;62537.16;4197452;34;19910;-86
2022/10/05 07:53:31;;;;;;;;;;;13.30;77.70;;;12.35;100.00;62537.16;4220332;34;19903;-85
2022/10/05 07:56:02;;;;;;;;;;;13.30;77.60;;;12.36;100.00;62537.16;4220347;34;19903;-85
2022/10/05 07:58:34;;;;;;;;;;;13.30;77.80;;;12.41;100.00;62537.16;4196943;34;19910;-86
2022/10/05 08:01:08;;;;;;;;;;;13.40;77.90;;;12.47;100.00;62537.16;4197389;34;19903;-86
2022/10/05 08:03:53;;;;;;;;;;;13.40;77.70;;;12.56;100.00;82847.56;4220163;34;20207;-86
2022/10/05 08:06:48;;;;;;;;;;;13.50;77.90;;;12.62;100.00;82856.41;4243547;33;19903;-86
2022/10/05 08:09:35;;;;;;;;;;;13.60;77.70;;;12.66;100.00;82861.72;4192729;34;19903;-85
2022/10/05 08:12:29;;;;;;;;;;;13.60;77.60;;;12.67;100.00;62537.16;4220051;34;19910;-86
2022/10/05 08:15:00;;;;;;;;;;;13.70;77.50;;;12.69;100.00;62537.16;4192480;34;19904;-86
2022/10/05 08:17:41;;;;;;;;;;;13.70;77.40;;;12.73;100.00;62537.16;4169536;34;19910;-86
2022/10/05 08:20:37;;;;;;;;;;;13.70;77.40;;;-151.14;100.00;62537.16;4192508;34;19903;-85
2022/10/05 08:23:15;;;;;;;;;;;13.70;77.30;;;12.79;100.00;62537.16;4188758;34;19903;-86
2022/10/05 08:25:53;;;;;;;;;;;13.80;77.10;;;-151.14;100.00;62537.16;4192353;34;19904;-85
2022/10/05 08:28:25;;;;;;;;;;;13.80;77.10;;;-151.14;100.00;62537.16;4169182;34;19904;-85
2022/10/05 08:30:59;;;;;;;;;;;13.80;77.00;;;-151.14;100.00;62537.16;4169550;34;19904;-86
2022/10/05 08:33:30;;;;;;;;;;;13.80;77.10;;;-151.14;100.00;62537.16;4192124;34;19904;-85
2022/10/05 08:36:06;;;;;;;;;;;13.90;77.10;;;-151.14;100.00;62537.16;4192226;34;20226;-86
2022/10/05 08:38:34;;;;;;;;;;;13.90;77.00;;;12.91;100.00;62537.16;4191766;34;19904;-86
2022/10/05 08:41:51;;;;;;;;;;;13.90;77.00;;;-151.14;100.00;62537.16;4169326;34;19904;-85
2022/10/05 08:45:29;;;;;;;;;;;13.90;77.00;;;12.92;100.00;62537.16;4169729;34;19911;-87
2022/10/05 08:48:10;;;;;;;;;;;13.90;77.00;;;-151.14;100.00;62537.16;4165079;34;20114;-86
2022/10/05 08:50:55;;;;;;;;;;;13.90;77.00;;;-151.14;100.00;62537.16;4215339;34;19911;-87
2022/10/05 09:14:56;;;;;;;;;;;13.80;77.10;;;-151.14;100.00;62537.16;4384768;32;19901;-82
2022/10/05 09:17:30;;;;;;;;;;;13.70;77.50;;;-151.14;100.00;62537.16;4168350;22;25859056;-87
2022/10/05 09:20:17;;;;;;;;;;;13.70;77.60;;;-151.14;100.00;62537.16;5010673;28;19927;-87
2022/10/05 09:23:04;;;;;;;;;;;13.70;77.80;;;12.60;100.00;82853.25;4994353;28;20098;-86
2022/10/05 09:25:43;;;;;;;;;;;13.60;77.70;;;-151.14;100.00;62537.16;5010115;28;19921;-87
2022/10/05 09:28:34;;;;;;;;;;;13.60;77.90;;;12.54;100.00;62537.16;4990963;28;19921;-86
2022/10/05 09:31:20;;;;;;;;;;;13.60;78.00;;;12.52;100.00;62537.16;4987207;28;19922;-87
2022/10/05 09:34:32;;;;;;;;;;;13.50;78.00;;;12.49;100.00;62537.16;4990203;28;19922;-87
2022/10/05 09:37:35;;;;;;;;;;;13.50;78.20;;;12.47;100.00;62537.16;4957970;28;19922;-87
2022/10/05 09:40:33;;;;;;;;;;;13.50;78.20;;;-151.14;100.00;62537.16;4968482;28;19922;-87
2022/10/05 09:43:11;;;;;;;;;;;13.50;78.30;;;12.43;100.00;62537.16;4990769;28;20208;-86
2022/10/05 09:46:18;;;;;;;;;;;13.40;78.30;;;12.42;100.00;62537.16;4990438;28;19928;-87
2022/10/05 09:49:05;;;;;;;;;;;13.40;78.30;;;12.41;100.00;62537.16;4974756;28;19928;-86
2022/10/05 09:52:22;;;;;;;;;;;13.40;78.40;;;12.42;100.00;62537.16;4990668;28;20239;-88
2022/10/05 09:55:29;;;;;;;;;;;13.40;78.40;;;12.43;100.00;62537.16;4959130;28;19922;-87
2022/10/05 09:58:09;;;;;;;;;;;13.40;78.30;;;12.44;100.00;62537.16;4987545;28;19922;-87
2022/10/05 10:00:43;;;;;;;;;;;13.40;78.40;;;12.45;100.00;62537.16;4971101;28;19922;-87
2022/10/05 10:03:24;;;;;;;;;;;13.40;78.30;;;12.45;100.00;62537.16;4971014;28;19922;-87
2022/10/05 10:06:11;;;;;;;;;;;13.40;78.30;;;12.46;100.00;62537.16;4970975;28;19922;-86
2022/10/05 10:08:53;;;;;;;;;;;13.50;78.40;;;12.49;100.00;62537.16;4971015;28;19922;-86
2022/10/05 10:11:26;;;;;;;;;;;13.50;78.20;;;12.52;100.00;62537.16;4970940;28;19922;-87
2022/10/05 10:14:25;;;;;;;;;;;13.50;78.20;;;12.54;100.00;62537.16;4967581;28;19922;-86
2022/10/05 10:17:16;;;;;;;;;;;13.50;78.20;;;-151.14;100.00;62537.16;4957974;28;20095;-86
2022/10/05 10:20:09;;;;;;;;;;;13.50;78.00;;;12.56;100.00;82848.28;4957997;28;19929;-87
2022/10/05 10:23:07;;;;;;;;;;;13.60;77.80;;;12.56;100.00;62537.16;4961707;28;19923;-87
2022/10/05 10:26:01;;;;;;;;;;;13.60;77.80;;;12.54;100.00;62537.16;4926244;28;20240;-87
2022/10/05 10:28:51;;;;;;;;;;;13.60;77.80;;;12.55;100.00;82846.88;4957953;28;19928;-87
2022/10/05 10:31:38;;;;;;;;;;;13.60;77.70;;;12.56;100.00;62537.16;4957840;28;20153;-86
2022/10/05 10:34:30;;;;;;;;;;;13.60;77.80;;;12.56;100.00;62537.16;4944422;28;19922;-86
2022/10/05 10:37:09;;;;;;;;;;;13.60;77.70;;;12.56;100.00;62537.16;4957839;28;19930;-87
2022/10/05 10:39:44;;;;;;;;;;;13.60;77.60;;;-151.14;100.00;62537.16;4973882;28;19928;-87
2022/10/05 10:42:31;;;;;;;;;;;13.50;77.70;;;12.53;100.00;62537.16;4974331;28;20319;-87
2022/10/05 10:45:19;;;;;;;;;;;13.50;77.70;;;12.50;100.00;62537.16;4957039;28;19928;-86
2022/10/05 10:47:51;;;;;;;;;;;13.50;77.70;;;12.48;100.00;62537.16;4957664;28;19922;-87
2022/10/05 10:51:01;;;;;;;;;;;13.50;77.80;;;12.46;100.00;62537.16;4957610;28;19929;-87
2022/10/05 10:54:14;;;;;;;;;;;13.50;77.90;;;12.48;100.00;62537.16;4957015;28;19922;-87
2022/10/05 10:56:48;;;;;;;;;;;13.50;77.90;;;12.46;100.00;62537.16;4884136;29;19929;-87
2022/10/05 10:59:41;;;;;;;;;;;13.50;77.90;;;-151.14;100.00;62537.16;4946559;28;19922;-87
2022/10/05 11:02:27;;;;;;;;;;;13.50;77.80;;;12.46;100.00;82834.09;4941437;28;19922;-86
2022/10/05 11:05:19;;;;;;;;;;;13.50;77.90;;;-151.14;100.00;62537.16;4956811;28;19929;-87
2022/10/05 11:07:58;;;;;;;;;;;13.50;77.80;;;12.42;100.00;62537.16;4957184;28;20210;-86
2022/10/05 11:10:35;;;;;;;;;;;13.40;77.70;;;12.43;100.00;62537.16;4957320;28;19922;-87
2022/10/05 11:13:37;;;;;;;;;;;13.40;77.70;;;12.41;100.00;62537.16;4957350;28;19922;-86
2022/10/05 11:16:34;;;;;;;;;;;13.40;77.70;;;12.40;100.00;62537.16;4956999;28;20213;-87
2022/10/05 11:19:29;;;;;;;;;;;13.40;77.70;;;-151.14;100.00;62537.16;4961233;28;19944;-87
2022/10/05 11:22:08;;;;;;;;;;;13.40;77.90;;;12.38;100.00;62537.16;4955215;28;20098;-86
2022/10/05 11:24:49;;;;;;;;;;;13.40;77.90;;;12.38;100.00;62537.16;4956578;28;19922;-86
2022/10/05 11:27:28;;;;;;;;;;;13.40;78.00;;;12.38;100.00;62537.16;4972123;28;19922;-87
2022/10/05 11:30:38;;;;;;;;;;;13.40;77.90;;;12.37;100.00;62537.16;4956957;28;19929;-87
2022/10/05 11:33:54;;;;;;;;;;;13.40;78.00;;;12.37;100.00;62537.16;4957106;28;19922;-86
2022/10/05 11:36:55;;;;;;;;;;;13.40;78.00;;;12.36;100.00;62537.16;4942631;28;20121;-86
2022/10/05 11:39:37;;;;;;;;;;;13.40;78.00;;;12.35;100.00;62537.16;4939518;28;19923;-87
2022/10/05 11:42:39;;;;;;;;;;;13.30;78.00;;;12.35;100.00;62537.16;4956849;28;19929;-87
2022/10/05 11:45:24;;;;;;;;;;;13.30;78.00;;;12.36;100.00;62537.16;4956094;28;19922;-87
2022/10/05 11:48:27;;;;;;;;;;;13.30;78.00;;;12.34;100.00;62537.16;4956771;28;19922;-86
2022/10/05 11:51:17;;;;;;;;;;;13.30;77.90;;;12.36;100.00;62537.16;4930486;28;19922;-86
2022/10/05 11:53:48;;;;;;;;;;;13.30;78.00;;;12.34;100.00;82817.81;4957064;28;19922;-86
2022/10/05 11:56:20;;;;;;;;;;;13.30;77.90;;;12.34;100.00;82817.09;4993091;28;19921;-87
2022/10/05 11:58:52;;;;;;;;;;;13.30;77.90;;;12.34;100.00;62537.16;4975857;28;19921;-86
2022/10/05 12:01:23;;;;;;;;;;;13.30;77.90;;;12.34;100.00;62537.16;4992087;28;20221;-86
2022/10/05 12:03:56;;;;;;;;;;;13.30;77.90;;;-151.14;100.00;62537.16;4975457;28;19926;-87
2022/10/05 12:06:38;;;;;;;;;;;13.30;77.90;;;-151.14;100.00;62537.16;4975531;28;19922;-86
2022/10/05 12:09:14;;;;;;;;;;;13.30;77.80;;;-151.14;100.00;62537.16;4959753;28;20116;-86
2022/10/05 12:11:55;;;;;;;;;;;13.30;77.90;;;-151.14;100.00;62537.16;4975663;28;19922;-86
2022/10/05 12:14:27;;;;;;;;;;;13.30;77.90;;;-151.14;100.00;62537.16;4975143;28;19928;-87
2022/10/05 12:16:58;;;;;;;;;;;13.30;77.90;;;-151.14;100.00;62537.16;4975262;28;19928;-86
2022/10/05 12:23:05;;;;;;;;;;;13.30;77.90;;;-151.14;100.00;62537.16;4981050;28;19922;-86
2022/10/05 12:25:34;;;;;;;;;;;13.30;78.00;;;-151.14;100.00;62537.16;4974765;28;20217;-86
2022/10/05 12:28:03;;;;;;;;;;;13.30;77.90;;;-151.14;100.00;62537.16;4975250;28;20213;-85